createdAt,value
2017-11-08T00:00:03.596Z,20.79
2017-11-08T00:01:12.883Z,20.76
2017-11-08T00:02:21.863Z,20.82
2017-11-08T00:03:31.161Z,20.76
2017-11-08T00:04:39.816Z,20.87
2017-11-08T00:05:48.786Z,20.84
2017-11-08T00:06:58.398Z,20.79
2017-11-08T00:08:07.372Z,20.76
2017-11-08T00:09:16.663Z,20.79
2017-11-08T00:10:25.625Z,20.82
2017-11-08T00:11:34.922Z,20.79
2017-11-08T00:12:43.905Z,20.77
2017-11-08T00:13:52.598Z,20.77
2017-11-08T00:15:01.889Z,20.82
2017-11-08T00:16:10.580Z,20.79
2017-11-08T00:17:19.553Z,20.79
2017-11-08T00:18:28.844Z,20.82
2017-11-08T00:19:37.817Z,20.66
2017-11-08T00:20:47.767Z,20.67
2017-11-08T00:21:56.405Z,20.69
2017-11-08T00:23:05.058Z,20.84
2017-11-08T00:24:14.013Z,20.74
2017-11-08T00:25:22.984Z,20.64
2017-11-08T00:26:32.278Z,20.79
2017-11-08T00:27:41.246Z,20.74
2017-11-08T00:28:50.203Z,20.74
2017-11-08T00:29:59.821Z,20.67
2017-11-08T00:31:08.446Z,20.72
2017-11-08T00:32:17.415Z,20.72
2017-11-08T00:33:26.386Z,20.69
2017-11-08T00:34:35.376Z,20.64
2017-11-08T00:35:44.015Z,20.72
2017-11-08T00:36:52.983Z,20.72
2017-11-08T00:38:01.962Z,20.84
2017-11-08T00:39:10.931Z,20.76
2017-11-08T00:40:20.227Z,20.66
2017-11-08T00:41:29.196Z,20.69
2017-11-08T00:42:38.478Z,20.72
2017-11-08T00:43:47.475Z,20.72
2017-11-08T00:44:57.094Z,20.7
2017-11-08T00:46:05.737Z,20.7
2017-11-08T00:47:14.700Z,20.7
2017-11-08T00:48:23.658Z,20.66
2017-11-08T00:49:32.638Z,20.66
2017-11-08T00:50:41.929Z,20.67
2017-11-08T00:51:50.900Z,20.64
2017-11-08T00:52:59.894Z,20.69
2017-11-08T00:54:08.852Z,20.67
2017-11-08T00:55:17.824Z,20.62
2017-11-08T00:56:27.108Z,20.67
2017-11-08T00:57:36.075Z,20.74
2017-11-08T00:58:45.373Z,20.7
2017-11-08T00:59:54.707Z,20.7
2017-11-08T01:01:03.693Z,20.73
2017-11-08T01:02:12.658Z,20.69
2017-11-08T01:03:21.628Z,20.72
2017-11-08T01:04:31.579Z,20.67
2017-11-08T01:05:40.542Z,20.73
2017-11-08T01:06:49.845Z,20.67
2017-11-08T01:07:58.818Z,20.7
2017-11-08T01:09:07.795Z,20.69
2017-11-08T01:10:16.452Z,20.73
2017-11-08T01:11:25.728Z,20.64
2017-11-08T01:12:35.012Z,20.69
2017-11-08T01:13:44.635Z,20.66
2017-11-08T01:14:53.596Z,20.69
2017-11-08T01:16:02.877Z,20.7
2017-11-08T01:17:11.524Z,20.69
2017-11-08T01:18:20.840Z,20.7
2017-11-08T01:19:30.115Z,20.7
2017-11-08T01:20:39.074Z,20.69
2017-11-08T01:21:47.710Z,20.67
2017-11-08T01:22:56.674Z,20.73
2017-11-08T01:24:05.967Z,20.73
2017-11-08T01:25:15.262Z,20.66
2017-11-08T01:26:24.221Z,20.67
2017-11-08T01:27:33.516Z,20.7
2017-11-08T01:28:42.478Z,20.69
2017-11-08T01:29:52.110Z,20.73
2017-11-08T01:31:01.416Z,20.69
2017-11-08T01:32:10.390Z,20.66
2017-11-08T01:33:20.018Z,20.69
2017-11-08T01:34:29.644Z,20.74
2017-11-08T01:35:38.605Z,20.67
2017-11-08T01:36:47.897Z,20.69
2017-11-08T01:37:56.527Z,20.66
2017-11-08T01:39:06.161Z,20.72
2017-11-08T01:40:15.123Z,20.69
2017-11-08T01:41:24.089Z,20.72
2017-11-08T01:42:33.054Z,20.67
2017-11-08T01:43:41.689Z,20.73
2017-11-08T01:44:50.345Z,20.67
2017-11-08T01:45:59.957Z,20.59
2017-11-08T01:47:08.915Z,20.55
2017-11-08T01:48:18.218Z,20.74
2017-11-08T01:49:27.505Z,20.7
2017-11-08T01:50:36.825Z,20.61
2017-11-08T01:51:45.839Z,20.7
2017-11-08T01:52:55.475Z,20.69
2017-11-08T01:54:05.419Z,20.69
2017-11-08T01:55:14.747Z,20.67
2017-11-08T01:56:23.722Z,20.61
2017-11-08T01:57:32.406Z,20.69
2017-11-08T01:58:42.052Z,20.72
2017-11-08T01:59:51.351Z,20.64
2017-11-08T02:01:00.984Z,20.64
2017-11-08T02:02:10.298Z,20.66
2017-11-08T02:03:19.268Z,20.58
2017-11-08T02:04:28.235Z,20.69
2017-11-08T02:05:37.862Z,20.69
2017-11-08T02:06:46.827Z,20.66
2017-11-08T02:07:56.130Z,20.7
2017-11-08T02:09:05.429Z,20.64
2017-11-08T02:10:14.420Z,20.67
2017-11-08T02:11:23.696Z,20.66
2017-11-08T02:12:32.355Z,20.67
2017-11-08T02:13:41.652Z,20.64
2017-11-08T02:14:50.621Z,20.7
2017-11-08T02:15:59.602Z,20.64
2017-11-08T02:17:08.560Z,20.64
2017-11-08T02:18:17.521Z,20.64
2017-11-08T02:19:27.163Z,20.66
2017-11-08T02:20:35.861Z,20.58
2017-11-08T02:21:44.834Z,20.64
2017-11-08T02:22:53.809Z,20.57
2017-11-08T02:24:02.461Z,20.69
2017-11-08T02:25:11.170Z,20.62
2017-11-08T02:26:20.823Z,20.59
2017-11-08T02:27:29.797Z,20.67
2017-11-08T02:28:39.738Z,20.64
2017-11-08T02:29:49.040Z,20.61
2017-11-08T02:30:58.334Z,20.62
2017-11-08T02:32:07.965Z,20.61
2017-11-08T02:33:17.622Z,20.64
2017-11-08T02:34:26.944Z,20.64
2017-11-08T02:35:35.605Z,20.52
2017-11-08T02:36:44.915Z,20.59
2017-11-08T02:37:53.872Z,20.62
2017-11-08T02:39:03.510Z,20.61
2017-11-08T02:40:12.479Z,20.59
2017-11-08T02:41:21.789Z,20.67
2017-11-08T02:42:30.758Z,20.64
2017-11-08T02:43:40.725Z,20.64
2017-11-08T02:44:50.010Z,20.59
2017-11-08T02:45:59.335Z,20.62
2017-11-08T02:47:08.963Z,20.67
2017-11-08T02:48:17.938Z,20.57
2017-11-08T02:49:27.230Z,20.62
2017-11-08T02:50:35.882Z,20.61
2017-11-08T02:51:44.529Z,20.64
2017-11-08T02:52:53.823Z,20.61
2017-11-08T02:54:02.459Z,20.61
2017-11-08T02:55:12.080Z,20.66
2017-11-08T02:56:22.075Z,20.61
2017-11-08T02:57:31.383Z,20.54
2017-11-08T02:58:40.995Z,20.61
2017-11-08T02:59:49.964Z,20.61
2017-11-08T03:00:59.276Z,20.61
2017-11-08T03:02:08.895Z,20.61
2017-11-08T03:03:18.515Z,20.62
2017-11-08T03:04:27.498Z,20.57
2017-11-08T03:05:36.781Z,20.61
2017-11-08T03:06:46.065Z,20.57
2017-11-08T03:07:55.026Z,20.57
2017-11-08T03:09:03.993Z,20.59
2017-11-08T03:10:12.961Z,20.57
2017-11-08T03:11:21.935Z,20.66
2017-11-08T03:12:30.578Z,20.58
2017-11-08T03:13:39.867Z,20.62
2017-11-08T03:14:48.839Z,20.57
2017-11-08T03:15:57.477Z,20.62
2017-11-08T03:17:06.453Z,20.57
2017-11-08T03:18:15.435Z,20.59
2017-11-08T03:19:25.384Z,20.54
2017-11-08T03:20:34.015Z,20.59
2017-11-08T03:21:43.629Z,20.66
2017-11-08T03:22:52.602Z,20.55
2017-11-08T03:24:01.579Z,20.57
2017-11-08T03:25:10.213Z,20.52
2017-11-08T03:26:19.503Z,20.57
2017-11-08T03:27:28.139Z,20.57
2017-11-08T03:28:36.785Z,20.54
2017-11-08T03:29:45.424Z,20.59
2017-11-08T03:30:54.720Z,20.57
2017-11-08T03:32:04.056Z,20.54
2017-11-08T03:33:13.020Z,20.59
2017-11-08T03:34:22.736Z,20.57
2017-11-08T03:35:31.379Z,20.55
2017-11-08T03:36:40.660Z,20.57
2017-11-08T03:37:49.985Z,20.54
2017-11-08T03:38:58.948Z,20.61
2017-11-08T03:40:08.248Z,20.57
2017-11-08T03:41:17.542Z,20.62
2017-11-08T03:42:26.190Z,20.54
2017-11-08T03:43:35.150Z,20.61
2017-11-08T03:44:44.115Z,20.57
2017-11-08T03:45:52.756Z,20.54
2017-11-08T03:47:01.384Z,20.57
2017-11-08T03:48:11.063Z,20.57
2017-11-08T03:49:20.674Z,20.57
2017-11-08T03:50:29.341Z,20.55
2017-11-08T03:51:38.978Z,20.59
2017-11-08T03:52:47.617Z,20.58
2017-11-08T03:53:56.569Z,20.57
2017-11-08T03:55:05.533Z,20.62
2017-11-08T03:56:14.166Z,20.57
2017-11-08T03:57:23.461Z,20.64
2017-11-08T03:58:32.106Z,20.55
2017-11-08T03:59:40.748Z,20.48
2017-11-08T04:00:50.361Z,20.55
2017-11-08T04:01:59.357Z,20.57
2017-11-08T04:03:08.976Z,20.51
2017-11-08T04:04:17.939Z,20.62
2017-11-08T04:05:27.560Z,20.57
2017-11-08T04:06:36.841Z,20.62
2017-11-08T04:07:45.814Z,20.52
2017-11-08T04:08:55.110Z,20.54
2017-11-08T04:10:04.414Z,20.55
2017-11-08T04:11:13.388Z,20.57
2017-11-08T04:12:22.368Z,20.55
2017-11-08T04:13:31.654Z,20.54
2017-11-08T04:14:40.610Z,20.55
2017-11-08T04:15:49.919Z,20.54
2017-11-08T04:16:59.206Z,20.51
2017-11-08T04:18:08.511Z,20.61
2017-11-08T04:19:17.486Z,20.55
2017-11-08T04:20:26.461Z,20.5
2017-11-08T04:21:35.431Z,20.62
2017-11-08T04:22:44.417Z,20.58
2017-11-08T04:23:53.371Z,20.59
2017-11-08T04:25:03.003Z,20.57
2017-11-08T04:26:12.304Z,20.51
2017-11-08T04:27:21.297Z,20.5
2017-11-08T04:28:30.287Z,20.52
2017-11-08T04:29:39.588Z,20.47
2017-11-08T04:30:48.894Z,20.57
2017-11-08T04:31:57.543Z,20.54
2017-11-08T04:33:06.843Z,20.47
2017-11-08T04:34:15.805Z,20.47
2017-11-08T04:35:25.110Z,20.57
2017-11-08T04:36:34.079Z,20.54
2017-11-08T04:37:43.380Z,20.48
2017-11-08T04:38:52.987Z,20.5
2017-11-08T04:40:02.337Z,20.42
2017-11-08T04:41:11.307Z,20.47
2017-11-08T04:42:20.599Z,20.58
2017-11-08T04:43:29.252Z,20.58
2017-11-08T04:44:38.236Z,20.58
2017-11-08T04:45:47.213Z,20.42
2017-11-08T04:46:56.178Z,20.42
2017-11-08T04:48:05.793Z,20.47
2017-11-08T04:49:14.421Z,20.42
2017-11-08T04:50:23.404Z,20.57
2017-11-08T04:51:32.040Z,20.58
2017-11-08T04:52:41.006Z,20.54
2017-11-08T04:53:49.975Z,20.42
2017-11-08T04:55:00.241Z,20.54
2017-11-08T04:56:09.870Z,20.51
2017-11-08T04:57:18.842Z,20.41
2017-11-08T04:58:27.808Z,20.42
2017-11-08T04:59:36.454Z,20.52
2017-11-08T05:00:45.410Z,20.52
2017-11-08T05:01:54.387Z,20.52
2017-11-08T05:03:03.685Z,20.42
2017-11-08T05:04:12.322Z,20.48
2017-11-08T05:05:20.968Z,20.57
2017-11-08T05:06:30.253Z,20.54
2017-11-08T05:07:38.886Z,20.51
2017-11-08T05:08:47.852Z,20.55
2017-11-08T05:09:56.829Z,20.55
2017-11-08T05:11:05.477Z,20.55
2017-11-08T05:12:15.086Z,20.51
2017-11-08T05:13:23.728Z,20.38
2017-11-08T05:14:32.363Z,20.54
2017-11-08T05:15:41.672Z,20.51
2017-11-08T05:16:50.646Z,20.48
2017-11-08T05:17:59.944Z,20.41
2017-11-08T05:19:09.256Z,20.52
2017-11-08T05:20:18.219Z,20.51
2017-11-08T05:21:26.847Z,20.5
2017-11-08T05:22:35.822Z,20.54
2017-11-08T05:23:44.526Z,20.51
2017-11-08T05:24:53.500Z,20.55
2017-11-08T05:26:03.146Z,20.5
2017-11-08T05:27:12.144Z,20.52
2017-11-08T05:28:21.112Z,20.54
2017-11-08T05:29:30.080Z,20.58
2017-11-08T05:30:39.041Z,20.51
2017-11-08T05:31:47.683Z,20.5
2017-11-08T05:32:56.986Z,20.48
2017-11-08T05:34:05.969Z,20.58
2017-11-08T05:35:14.636Z,20.41
2017-11-08T05:36:23.948Z,20.51
2017-11-08T05:37:32.923Z,20.55
2017-11-08T05:38:41.884Z,20.48
2017-11-08T05:39:50.848Z,20.5
2017-11-08T05:40:59.810Z,20.55
2017-11-08T05:42:08.829Z,20.52
2017-11-08T05:43:17.457Z,20.51
2017-11-08T05:44:26.108Z,20.5
2017-11-08T05:45:34.750Z,20.52
2017-11-08T05:46:44.044Z,20.38
2017-11-08T05:47:53.017Z,20.54
2017-11-08T05:49:02.313Z,20.52
2017-11-08T05:50:12.307Z,20.54
2017-11-08T05:51:20.952Z,20.43
2017-11-08T05:52:29.611Z,20.54
2017-11-08T05:53:38.603Z,20.55
2017-11-08T05:54:47.563Z,20.43
2017-11-08T05:55:56.889Z,20.5
2017-11-08T05:57:06.195Z,20.48
2017-11-08T05:58:15.829Z,20.55
2017-11-08T05:59:24.798Z,20.5
2017-11-08T06:00:33.791Z,20.5
2017-11-08T06:01:43.084Z,20.38
2017-11-08T06:02:52.425Z,20.5
2017-11-08T06:04:02.374Z,20.52
2017-11-08T06:05:11.988Z,20.54
2017-11-08T06:06:21.292Z,20.48
2017-11-08T06:07:30.270Z,20.5
2017-11-08T06:08:38.933Z,20.41
2017-11-08T06:09:47.894Z,20.43
2017-11-08T06:10:56.861Z,20.51
2017-11-08T06:12:05.508Z,20.5
2017-11-08T06:13:14.174Z,20.5
2017-11-08T06:14:22.828Z,20.5
2017-11-08T06:15:31.831Z,20.55
2017-11-08T06:16:40.868Z,20.51
2017-11-08T06:17:50.540Z,20.54
2017-11-08T06:18:59.540Z,20.55
2017-11-08T06:20:08.524Z,20.52
2017-11-08T06:21:17.172Z,20.5
2017-11-08T06:22:26.466Z,20.43
2017-11-08T06:23:35.456Z,20.54
2017-11-08T06:24:44.433Z,20.54
2017-11-08T06:25:53.615Z,20.5
2017-11-08T06:27:02.642Z,20.54
2017-11-08T06:28:11.351Z,20.41
2017-11-08T06:29:20.316Z,20.5
2017-11-08T06:30:29.291Z,20.41
2017-11-08T06:31:38.274Z,20.51
2017-11-08T06:32:47.567Z,20.52
2017-11-08T06:33:56.216Z,20.51
2017-11-08T06:35:05.622Z,20.58
2017-11-08T06:36:14.908Z,20.43
2017-11-08T06:37:23.868Z,20.54
2017-11-08T06:38:32.846Z,20.54
2017-11-08T06:39:42.147Z,20.57
2017-11-08T06:40:51.435Z,20.48
2017-11-08T06:42:00.080Z,20.42
2017-11-08T06:43:09.385Z,20.42
2017-11-08T06:44:18.031Z,20.51
2017-11-08T06:45:27.666Z,20.41
2017-11-08T06:46:36.993Z,20.52
2017-11-08T06:47:45.651Z,20.52
2017-11-08T06:48:55.265Z,20.5
2017-11-08T06:50:03.908Z,20.43
2017-11-08T06:51:12.871Z,20.51
2017-11-08T06:52:21.910Z,20.5
2017-11-08T06:53:31.206Z,20.57
2017-11-08T06:54:40.496Z,20.52
2017-11-08T06:55:49.827Z,20.59
2017-11-08T06:56:59.112Z,20.55
2017-11-08T06:58:08.080Z,20.57
2017-11-08T06:59:17.044Z,20.64
2017-11-08T07:00:26.025Z,20.67
2017-11-08T07:01:35.014Z,20.72
2017-11-08T07:02:43.675Z,20.7
2017-11-08T07:03:52.675Z,20.69
2017-11-08T07:05:01.317Z,20.8
2017-11-08T07:06:10.308Z,20.89
2017-11-08T07:07:19.664Z,20.92
2017-11-08T07:08:28.978Z,20.97
2017-11-08T07:09:38.599Z,21.07
2017-11-08T07:10:48.220Z,21.03
2017-11-08T07:11:57.849Z,21.14
2017-11-08T07:13:06.476Z,21.24
2017-11-08T07:14:15.439Z,21.29
2017-11-08T07:15:24.431Z,21.35
2017-11-08T07:16:34.417Z,21.43
2017-11-08T07:17:43.398Z,21.4
2017-11-08T07:18:52.711Z,21.53
2017-11-08T07:20:01.369Z,21.53
2017-11-08T07:21:10.673Z,21.67
2017-11-08T07:22:20.285Z,21.74
2017-11-08T07:23:30.251Z,21.79
2017-11-08T07:24:39.863Z,21.74
2017-11-08T07:25:49.176Z,21.86
2017-11-08T07:26:57.821Z,21.86
2017-11-08T07:28:07.440Z,21.91
2017-11-08T07:29:16.403Z,21.9
2017-11-08T07:30:25.382Z,21.88
2017-11-08T07:31:34.686Z,21.98
2017-11-08T07:32:44.307Z,22
2017-11-08T07:33:52.951Z,21.99
2017-11-08T07:35:02.248Z,22.09
2017-11-08T07:36:11.250Z,22.12
2017-11-08T07:37:20.566Z,22.06
2017-11-08T07:38:29.551Z,22.09
2017-11-08T07:39:39.549Z,22.09
2017-11-08T07:40:48.840Z,22.17
2017-11-08T07:41:58.150Z,22.02
2017-11-08T07:43:07.472Z,22.17
2017-11-08T07:44:16.442Z,22.14
2017-11-08T07:45:25.773Z,22.18
2017-11-08T07:46:35.090Z,22.24
2017-11-08T07:47:44.752Z,22.21
2017-11-08T07:48:53.408Z,22.18
2017-11-08T07:50:02.049Z,22.17
2017-11-08T07:51:11.042Z,22.24
2017-11-08T07:52:20.006Z,22.25
2017-11-08T07:53:28.974Z,22.21
2017-11-08T07:54:37.656Z,22.25
2017-11-08T07:55:47.494Z,22.28
2017-11-08T07:56:57.191Z,22.22
2017-11-08T07:58:06.887Z,22.3
2017-11-08T07:59:16.312Z,22.28
2017-11-08T08:00:25.108Z,22.24
2017-11-08T08:01:33.827Z,22.3
2017-11-08T08:02:43.141Z,22.27
2017-11-08T08:03:52.211Z,22.21
2017-11-08T08:05:01.183Z,22.24
2017-11-08T08:06:10.550Z,22.28
2017-11-08T08:07:19.606Z,22.22
2017-11-08T08:08:29.000Z,22.21
2017-11-08T08:09:37.769Z,22.21
2017-11-08T08:10:46.809Z,22.2
2017-11-08T08:11:55.930Z,22.15
2017-11-08T08:13:04.987Z,22.18
2017-11-08T08:14:14.347Z,22.25
2017-11-08T08:15:23.467Z,22.22
2017-11-08T08:16:33.168Z,22.2
2017-11-08T08:17:42.571Z,22.09
2017-11-08T08:18:52.205Z,22.12
2017-11-08T08:20:01.520Z,22
2017-11-08T08:21:10.566Z,22.07
2017-11-08T08:22:19.901Z,22.07
2017-11-08T08:23:28.955Z,22.07
2017-11-08T08:24:38.000Z,22.03
2017-11-08T08:25:47.061Z,22
2017-11-08T08:26:56.131Z,21.98
2017-11-08T08:28:05.431Z,21.99
2017-11-08T08:29:15.780Z,21.91
2017-11-08T08:30:24.503Z,21.84
2017-11-08T08:31:33.919Z,21.86
2017-11-08T08:32:42.691Z,21.99
2017-11-08T08:33:51.732Z,21.86
2017-11-08T08:35:00.484Z,21.92
2017-11-08T08:36:10.507Z,21.82
2017-11-08T08:37:19.559Z,21.83
2017-11-08T08:38:28.608Z,21.75
2017-11-08T08:39:37.618Z,21.69
2017-11-08T08:40:47.048Z,21.75
2017-11-08T08:41:56.118Z,21.79
2017-11-08T08:43:05.154Z,21.77
2017-11-08T08:44:14.152Z,21.72
2017-11-08T08:45:23.477Z,21.74
2017-11-08T08:46:32.455Z,21.71
2017-11-08T08:47:41.744Z,21.72
2017-11-08T08:48:50.711Z,21.75
2017-11-08T08:50:00.029Z,21.72
2017-11-08T08:51:08.996Z,21.65
2017-11-08T08:52:17.646Z,21.65
2017-11-08T08:53:26.941Z,21.65
2017-11-08T08:54:35.932Z,21.68
2017-11-08T08:55:44.591Z,21.64
2017-11-08T08:56:53.897Z,21.58
2017-11-08T08:58:02.555Z,21.61
2017-11-08T08:59:11.529Z,21.62
2017-11-08T09:00:20.499Z,21.53
2017-11-08T09:01:29.163Z,21.53
2017-11-08T09:02:37.827Z,21.58
2017-11-08T09:03:46.808Z,21.58
2017-11-08T09:04:55.785Z,21.52
2017-11-08T09:06:05.418Z,21.58
2017-11-08T09:07:15.057Z,21.53
2017-11-08T09:08:24.032Z,21.53
2017-11-08T09:09:33.064Z,21.49
2017-11-08T09:10:42.699Z,21.54
2017-11-08T09:11:52.007Z,21.42
2017-11-08T09:13:01.325Z,21.49
2017-11-08T09:14:10.320Z,21.59
2017-11-08T09:15:19.316Z,21.37
2017-11-08T09:16:28.332Z,21.49
2017-11-08T09:17:37.373Z,21.44
2017-11-08T09:18:46.379Z,21.43
2017-11-08T09:19:55.690Z,21.43
2017-11-08T09:21:04.662Z,21.4
2017-11-08T09:22:13.656Z,21.46
2017-11-08T09:23:22.976Z,21.42
2017-11-08T09:24:32.941Z,21.43
2017-11-08T09:25:42.266Z,21.43
2017-11-08T09:26:51.927Z,21.34
2017-11-08T09:28:00.589Z,21.4
2017-11-08T09:29:10.550Z,21.46
2017-11-08T09:30:19.208Z,21.43
2017-11-08T09:31:28.533Z,21.34
2017-11-08T09:32:38.194Z,21.32
2017-11-08T09:33:47.248Z,21.43
2017-11-08T09:34:56.564Z,21.38
2017-11-08T09:36:06.744Z,21.4
2017-11-08T09:37:16.392Z,21.34
2017-11-08T09:38:25.689Z,21.31
2017-11-08T09:39:34.664Z,21.37
2017-11-08T09:40:43.988Z,21.31
2017-11-08T09:41:52.973Z,21.28
2017-11-08T09:43:01.954Z,21.31
2017-11-08T09:44:11.256Z,21.29
2017-11-08T09:45:19.912Z,21.25
2017-11-08T09:46:28.613Z,21.29
2017-11-08T09:47:37.586Z,21.29
2017-11-08T09:48:46.251Z,21.25
2017-11-08T09:49:54.955Z,21.28
2017-11-08T09:51:03.935Z,21.32
2017-11-08T09:52:13.586Z,21.28
2017-11-08T09:53:22.235Z,21.24
2017-11-08T09:54:30.950Z,21.24
2017-11-08T09:55:40.297Z,21.28
2017-11-08T09:56:49.353Z,21.22
2017-11-08T09:57:58.002Z,21.29
2017-11-08T09:59:06.673Z,21.25
2017-11-08T10:00:15.969Z,21.28
2017-11-08T10:01:24.945Z,21.27
2017-11-08T10:02:33.932Z,21.25
2017-11-08T10:03:42.925Z,21.25
2017-11-08T10:04:51.570Z,21.31
2017-11-08T10:06:00.583Z,21.24
2017-11-08T10:07:09.566Z,21.24
2017-11-08T10:08:18.220Z,21.22
2017-11-08T10:09:27.296Z,21.24
2017-11-08T10:10:35.933Z,21.25
2017-11-08T10:11:44.912Z,21.24
2017-11-08T10:12:53.883Z,21.24
2017-11-08T10:14:02.555Z,21.24
2017-11-08T10:15:11.519Z,21.24
2017-11-08T10:16:20.499Z,21.21
2017-11-08T10:17:30.120Z,21.28
2017-11-08T10:18:39.526Z,21.25
2017-11-08T10:19:49.222Z,21.22
2017-11-08T10:20:58.536Z,21.19
2017-11-08T10:22:07.192Z,21.25
2017-11-08T10:23:16.176Z,21.22
2017-11-08T10:24:25.482Z,21.25
2017-11-08T10:25:34.124Z,21.14
2017-11-08T10:26:43.132Z,21.22
2017-11-08T10:27:52.435Z,21.24
2017-11-08T10:29:01.746Z,21.27
2017-11-08T10:30:11.388Z,21.22
2017-11-08T10:31:20.384Z,21.24
2017-11-08T10:32:29.713Z,21.21
2017-11-08T10:33:38.371Z,21.22
2017-11-08T10:34:47.015Z,21.21
2017-11-08T10:35:55.995Z,21.21
2017-11-08T10:37:04.634Z,21.24
2017-11-08T10:38:13.620Z,21.19
2017-11-08T10:39:22.946Z,21.19
2017-11-08T10:40:31.592Z,21.24
2017-11-08T10:41:40.902Z,21.19
2017-11-08T10:42:50.511Z,21.27
2017-11-08T10:43:59.481Z,21.25
2017-11-08T10:45:09.467Z,21.25
2017-11-08T10:46:18.784Z,21.16
2017-11-08T10:47:28.086Z,21.22
2017-11-08T10:48:37.724Z,21.19
2017-11-08T10:49:47.049Z,21.24
2017-11-08T10:50:56.352Z,21.19
2017-11-08T10:52:05.059Z,21.21
2017-11-08T10:53:14.734Z,21.17
2017-11-08T10:54:24.366Z,21.19
2017-11-08T10:55:33.989Z,21.13
2017-11-08T10:56:43.633Z,21.16
2017-11-08T10:57:53.266Z,21.16
2017-11-08T10:59:02.596Z,21.14
2017-11-08T11:00:12.258Z,21.16
2017-11-08T11:01:20.916Z,21.14
2017-11-08T11:02:29.906Z,21.17
2017-11-08T11:03:39.896Z,21.13
2017-11-08T11:04:49.551Z,21.16
2017-11-08T11:05:59.883Z,21.16
2017-11-08T11:07:08.882Z,21.13
2017-11-08T11:08:18.209Z,21.13
2017-11-08T11:09:27.187Z,21.14
2017-11-08T11:10:36.509Z,21.14
2017-11-08T11:11:45.483Z,21.14
2017-11-08T11:12:54.828Z,21.13
2017-11-08T11:14:04.479Z,21.13
2017-11-08T11:15:13.459Z,21.13
2017-11-08T11:16:23.745Z,21.13
2017-11-08T11:17:32.730Z,21.13
2017-11-08T11:18:42.055Z,21.1
2017-11-08T11:19:50.718Z,21.17
2017-11-08T11:21:00.365Z,21.17
2017-11-08T11:22:10.342Z,21.13
2017-11-08T11:23:19.333Z,21.07
2017-11-08T11:24:28.679Z,21.13
2017-11-08T11:25:38.314Z,21.1
2017-11-08T11:26:47.287Z,21.14
2017-11-08T11:27:57.003Z,21.19
2017-11-08T11:29:06.988Z,21.14
2017-11-08T11:30:16.627Z,21.06
2017-11-08T11:31:25.947Z,21.13
2017-11-08T11:32:35.295Z,20.99
2017-11-08T11:33:44.927Z,21.16
2017-11-08T11:34:54.901Z,21.14
2017-11-08T11:36:04.555Z,21.13
2017-11-08T11:37:14.523Z,21.13
2017-11-08T11:38:24.490Z,21.04
2017-11-08T11:39:33.814Z,21.09
2017-11-08T11:40:42.805Z,21.09
2017-11-08T11:41:52.135Z,21.09
2017-11-08T11:43:01.481Z,21.07
2017-11-08T11:44:11.173Z,21.09
2017-11-08T11:45:20.901Z,21.06
2017-11-08T11:46:30.869Z,21.04
2017-11-08T11:47:40.502Z,21.1
2017-11-08T11:48:50.476Z,21.03
2017-11-08T11:50:00.453Z,21.01
2017-11-08T11:51:09.422Z,21.03
2017-11-08T11:52:18.731Z,21.06
2017-11-08T11:53:28.698Z,21.07
2017-11-08T11:54:38.002Z,21.06
2017-11-08T11:55:47.352Z,21.07
2017-11-08T11:56:56.656Z,21.1
2017-11-08T11:58:05.641Z,21.04
2017-11-08T11:59:14.621Z,21.04
2017-11-08T12:00:24.277Z,21.09
2017-11-08T12:01:33.577Z,21.06
2017-11-08T12:02:42.899Z,21.01
2017-11-08T12:03:52.527Z,21.06
2017-11-08T12:05:02.165Z,21.07
2017-11-08T12:06:11.473Z,21.12
2017-11-08T12:07:20.460Z,21.12
2017-11-08T12:08:30.116Z,21.06
2017-11-08T12:09:39.432Z,21.09
2017-11-08T12:10:48.429Z,21.01
2017-11-08T12:11:57.730Z,21.01
2017-11-08T12:13:07.393Z,21.09
2017-11-08T12:14:16.693Z,21.06
2017-11-08T12:15:26.007Z,21.1
2017-11-08T12:16:34.649Z,21.04
2017-11-08T12:17:44.634Z,21.03
2017-11-08T12:18:54.374Z,20.99
2017-11-08T12:20:03.371Z,21.01
2017-11-08T12:21:12.693Z,21.09
2017-11-08T12:22:21.997Z,21.06
2017-11-08T12:23:31.322Z,20.99
2017-11-08T12:24:40.956Z,21.06
2017-11-08T12:25:50.609Z,20.98
2017-11-08T12:27:00.248Z,21.03
2017-11-08T12:28:09.239Z,20.95
2017-11-08T12:29:19.200Z,20.95
2017-11-08T12:30:28.832Z,21.03
2017-11-08T12:31:38.157Z,20.98
2017-11-08T12:32:47.462Z,20.99
2017-11-08T12:33:56.788Z,20.99
2017-11-08T12:35:06.442Z,20.98
2017-11-08T12:36:16.077Z,21.03
2017-11-08T12:37:25.400Z,20.99
2017-11-08T12:38:35.368Z,20.97
2017-11-08T12:39:45.014Z,20.95
2017-11-08T12:40:54.310Z,20.98
2017-11-08T12:42:04.288Z,20.97
2017-11-08T12:43:13.583Z,20.94
2017-11-08T12:44:22.565Z,20.97
2017-11-08T12:45:32.234Z,20.98
2017-11-08T12:46:41.548Z,20.95
2017-11-08T12:47:50.967Z,20.95
2017-11-08T12:49:00.936Z,20.94
2017-11-08T12:50:10.953Z,20.94
2017-11-08T12:51:20.587Z,20.92
2017-11-08T12:52:29.583Z,20.94
2017-11-08T12:53:39.564Z,20.94
2017-11-08T12:54:48.893Z,20.95
2017-11-08T12:55:58.217Z,20.95
2017-11-08T12:57:07.518Z,21.01
2017-11-08T12:58:16.824Z,20.98
2017-11-08T12:59:26.595Z,20.92
2017-11-08T13:00:36.249Z,20.98
2017-11-08T13:01:45.256Z,20.98
2017-11-08T13:02:55.238Z,20.95
2017-11-08T13:04:05.543Z,20.95
2017-11-08T13:05:15.547Z,20.97
2017-11-08T13:06:25.849Z,20.94
2017-11-08T13:07:35.830Z,20.94
2017-11-08T13:08:45.141Z,20.92
2017-11-08T13:09:54.437Z,20.99
2017-11-08T13:11:04.082Z,20.98
2017-11-08T13:12:13.498Z,20.92
2017-11-08T13:13:22.888Z,20.91
2017-11-08T13:14:32.217Z,21.01
2017-11-08T13:15:41.552Z,20.95
2017-11-08T13:16:50.896Z,20.92
2017-11-08T13:17:59.547Z,20.95
2017-11-08T13:19:09.212Z,20.95
2017-11-08T13:20:18.853Z,20.92
2017-11-08T13:21:28.155Z,20.92
2017-11-08T13:22:37.125Z,20.95
2017-11-08T13:23:46.454Z,20.95
2017-11-08T13:24:55.446Z,20.95
2017-11-08T13:26:04.438Z,20.94
2017-11-08T13:27:13.430Z,20.95
2017-11-08T13:28:22.423Z,20.92
2017-11-08T13:29:31.405Z,20.94
2017-11-08T13:30:40.714Z,20.98
2017-11-08T13:31:50.367Z,20.92
2017-11-08T13:33:00.024Z,20.98
2017-11-08T13:34:09.341Z,20.94
2017-11-08T13:35:18.989Z,20.95
2017-11-08T13:36:28.304Z,20.94
2017-11-08T13:37:37.277Z,20.92
2017-11-08T13:38:46.587Z,20.91
2017-11-08T13:39:55.933Z,20.97
2017-11-08T13:41:05.583Z,20.95
2017-11-08T13:42:14.578Z,20.92
2017-11-08T13:43:23.890Z,20.92
2017-11-08T13:44:32.540Z,20.95
2017-11-08T13:45:42.197Z,20.92
2017-11-08T13:46:51.852Z,20.91
2017-11-08T13:48:00.829Z,20.92
2017-11-08T13:49:10.225Z,20.88
2017-11-08T13:50:19.553Z,20.94
2017-11-08T13:51:29.199Z,20.95
2017-11-08T13:52:38.185Z,20.92
2017-11-08T13:53:47.492Z,20.92
2017-11-08T13:54:57.166Z,20.89
2017-11-08T13:56:07.456Z,20.91
2017-11-08T13:57:16.765Z,20.89
2017-11-08T13:58:26.788Z,20.85
2017-11-08T13:59:36.791Z,20.84
2017-11-08T14:00:46.107Z,20.89
2017-11-08T14:01:55.419Z,20.8
2017-11-08T14:03:05.077Z,20.89
2017-11-08T14:04:13.725Z,20.85
2017-11-08T14:05:23.353Z,20.89
2017-11-08T14:06:32.672Z,20.89
2017-11-08T14:07:42.660Z,20.92
2017-11-08T14:08:51.972Z,20.87
2017-11-08T14:10:01.271Z,20.8
2017-11-08T14:11:10.917Z,20.85
2017-11-08T14:12:20.554Z,20.89
2017-11-08T14:13:29.535Z,20.82
2017-11-08T14:14:38.513Z,20.84
2017-11-08T14:15:48.147Z,20.85
2017-11-08T14:16:57.782Z,20.89
2017-11-08T14:18:07.099Z,20.88
2017-11-08T14:19:16.735Z,20.84
2017-11-08T14:20:25.727Z,20.82
2017-11-08T14:21:34.717Z,20.84
2017-11-08T14:22:43.708Z,20.85
2017-11-08T14:23:53.029Z,20.87
2017-11-08T14:25:02.367Z,20.91
2017-11-08T14:26:11.694Z,20.87
2017-11-08T14:27:20.385Z,20.88
2017-11-08T14:28:29.696Z,20.84
2017-11-08T14:29:39.357Z,20.84
2017-11-08T14:30:48.672Z,20.77
2017-11-08T14:31:58.660Z,20.85
2017-11-08T14:33:08.657Z,20.89
2017-11-08T14:34:18.006Z,20.88
2017-11-08T14:35:27.993Z,20.79
2017-11-08T14:36:37.295Z,20.88
2017-11-08T14:37:46.988Z,20.84
2017-11-08T14:38:56.311Z,20.87
2017-11-08T14:40:06.294Z,20.88
2017-11-08T14:41:15.970Z,20.8
2017-11-08T14:42:25.293Z,20.87
2017-11-08T14:43:34.276Z,20.89
2017-11-08T14:44:43.642Z,20.84
2017-11-08T14:45:52.306Z,20.89
2017-11-08T14:47:01.637Z,20.87
2017-11-08T14:48:11.286Z,20.85
2017-11-08T14:49:20.593Z,20.87
2017-11-08T14:50:29.914Z,20.85
2017-11-08T14:51:39.240Z,20.87
2017-11-08T14:52:47.907Z,20.91